NAL weather

Nalchik Airport
Nalchik, Kabardino-Balkar Republic, Russia

Public forecast

Using degrees Celsius for public forecast. Weather courtesy of forecast.io.

METAR (pilot weather report)

Retrieved 2019/08/19 22:00 UTC (53 seconds ago):

URMN 192200Z 32003MPS 9999 BKN/// 22/16 Q1016 R24/////// NOSIG RMK QFE725

TAF (pilot weather forecast)

Forecast is more than 12 hours old.

Retrieved 2019/07/24 06:12 UTC (27 days ago):

TAF TAF URMN 240500Z 2406/2418 07003MPS 9999 SCT030CB TEMPO 2406/2415 VRB07G12MPS 3100 -TSRA SCT009 BKN020CB